Carlos Rovirosa Pérez International Airport
MMVA : rendu visible

Aérodrome :











RETROUVEZ-NOUS SUR...

 
LOGIN :

S'inscrire | Disclaimer

   EN    FR    IT 

 









Légende :    VFR   VFR Marginal   IFR   IFR Intensif   IFR Très Intensif
Visi : 
Plafond : 
>= 8 km
>= 3000ft
5 à 8 km
1000 à 3000 ft
1500m à 5 km
500 à 1000 ft
800 à 1500m
200 à 500 ft
< 800m
< 200 ft
Symboles :   Orages  Brouillard  Fortes neiges  Fortes précipitations  Vent > 20 kt






- Altitude de l'aérodrome : 46 ft
- Code IATA : VSA


MMVA - Carlos Rovirosa Pérez International

DERNIER METAR :
  • 121842Z 26005KT 2 1/2SM HZ BKN008 OVC012 24/24 A3009 RMK 8/8// BINOVC

METARs EXPIRÉS :
  • 121743Z 26005KT 2SM HZ BKN008 OVC010 23/23 A3013 RMK SLP204 57006 911 8/5//
  • 121640Z 26005KT 3SM HZ BKN010 OVC013 22/22 A3016 RMK 8/4//

TAF TAF MMVA
Valide du 12 à 18h jusqu'au 13 à 18h UTC


121650Z 1218/1318 25010KT 3SM HZ BKN010 OVC030
FM122200 26010KT 4SM HZ OVC020
PROB40 1306/1310 2SM -RA
FM131200 00000KT 1SM BR OVC003
FM131600 23010KT 3SM BR OVC015



MET'MAP, la Météo Aéronautique d'un coup d'oeil ! - Copyright ORBIFLY Décembre 2007 - Disclaimer

ORBIFLY MET'MAP TEAM :

Programmation & Développement : Alexandra Zaïnal
Sur une idée originale de : Baudouin d'Aumeries
Assistance à la programmation : Marc-Olivier Méhu
Soutien technique & logistique : Manuel Goepfert

Contact : metmap@orbifly.com




SOURCES & CREDITS :

   NOAA       Earth
Advisory